createdAt,value
2023-05-17T00:02:23.169Z,3.70
2023-05-17T00:04:53.755Z,3.20
2023-05-17T00:07:26.234Z,3.30
2023-05-17T00:09:56.086Z,2.90
2023-05-17T00:12:25.941Z,3.57
2023-05-17T00:14:55.883Z,3.50
2023-05-17T00:17:26.192Z,3.60
2023-05-17T00:19:56.118Z,3.40
2023-05-17T00:22:28.628Z,3.67
2023-05-17T00:24:58.407Z,3.63
2023-05-17T00:27:28.198Z,4.30
2023-05-17T00:29:58.019Z,4.17
2023-05-17T00:32:27.878Z,3.13
2023-05-17T00:34:57.716Z,4.03
2023-05-17T00:37:30.125Z,4.20
2023-05-17T00:39:59.889Z,3.40
2023-05-17T00:42:29.693Z,3.67
2023-05-17T00:44:59.492Z,3.73
2023-05-17T00:47:29.350Z,3.57
2023-05-17T00:49:59.349Z,3.60
2023-05-17T00:52:31.786Z,3.90
2023-05-17T00:55:02.019Z,3.60
2023-05-17T00:57:32.360Z,3.30
2023-05-17T01:00:05.038Z,3.53
2023-05-17T01:02:35.888Z,3.40
2023-05-17T01:05:05.913Z,4.30
2023-05-17T01:07:38.474Z,4.23
2023-05-17T01:10:09.936Z,4.30
2023-05-17T01:12:50.925Z,3.90
2023-05-17T01:15:26.230Z,3.40
2023-05-17T01:18:09.852Z,3.80
2023-05-17T01:20:43.059Z,3.93
2023-05-17T01:23:30.839Z,4.20
2023-05-17T01:26:07.544Z,4.40
2023-05-17T01:28:41.424Z,4.37
2023-05-17T01:31:14.061Z,4.00
2023-05-17T01:33:44.307Z,3.90
2023-05-17T01:36:14.184Z,3.83
2023-05-17T01:38:44.617Z,4.10
2023-05-17T01:41:21.110Z,4.67
2023-05-17T01:43:58.035Z,4.30
2023-05-17T01:46:31.643Z,5.07
2023-05-17T01:49:11.805Z,4.23
2023-05-17T01:51:47.978Z,4.17
2023-05-17T01:54:23.174Z,4.47
2023-05-17T01:57:00.335Z,5.10
2023-05-17T01:59:34.445Z,5.60
2023-05-17T02:02:08.889Z,4.80
2023-05-17T02:04:39.589Z,4.53
2023-05-17T02:07:09.428Z,5.50
2023-05-17T02:09:39.457Z,4.73
2023-05-17T02:12:10.419Z,4.83
2023-05-17T02:14:42.774Z,5.60
2023-05-17T02:17:13.530Z,5.20
2023-05-17T02:19:43.396Z,5.60
2023-05-17T02:22:13.233Z,4.60
2023-05-17T02:24:43.041Z,5.40
2023-05-17T02:27:14.207Z,4.67
2023-05-17T02:29:46.555Z,5.10
2023-05-17T02:32:16.357Z,5.13
2023-05-17T02:34:49.058Z,5.67
2023-05-17T02:37:18.830Z,5.07
2023-05-17T02:39:48.622Z,5.07
2023-05-17T02:42:18.435Z,6.13
2023-05-17T02:44:53.134Z,5.30
2023-05-17T02:47:23.827Z,5.20
2023-05-17T02:49:53.637Z,5.80
2023-05-17T02:52:23.608Z,4.73
2023-05-17T02:54:53.421Z,5.50
2023-05-17T02:57:23.193Z,5.13
2023-05-17T02:59:55.707Z,5.50
2023-05-17T03:02:25.681Z,4.97
2023-05-17T03:04:55.520Z,5.67
2023-05-17T03:07:25.706Z,5.30
2023-05-17T03:09:56.280Z,6.50
2023-05-17T03:12:29.369Z,5.27
2023-05-17T03:15:02.111Z,5.00
2023-05-17T03:17:32.558Z,6.13
2023-05-17T03:20:02.960Z,6.03
2023-05-17T03:22:33.366Z,6.17
2023-05-17T03:25:03.388Z,6.37
2023-05-17T03:27:33.232Z,6.80
2023-05-17T03:30:06.339Z,5.20
2023-05-17T03:32:37.793Z,5.33
2023-05-17T03:35:08.501Z,5.23
2023-05-17T03:37:40.076Z,5.47
2023-05-17T03:40:11.615Z,5.73
2023-05-17T03:42:41.561Z,5.50
2023-05-17T03:45:14.717Z,5.67
2023-05-17T03:47:44.552Z,5.57
2023-05-17T03:50:15.221Z,6.40
2023-05-17T03:52:46.319Z,5.50
2023-05-17T03:55:16.589Z,5.87
2023-05-17T03:57:46.384Z,5.20
2023-05-17T04:00:22.032Z,5.60
2023-05-17T04:02:52.315Z,4.70
2023-05-17T04:05:23.284Z,6.27
2023-05-17T04:07:53.417Z,6.47
2023-05-17T04:10:23.292Z,4.93
2023-05-17T04:12:54.098Z,5.63
2023-05-17T04:15:26.678Z,5.57
2023-05-17T04:17:56.811Z,5.00
2023-05-17T04:20:27.666Z,5.87
2023-05-17T04:22:57.876Z,6.40
2023-05-17T04:25:31.260Z,5.83
2023-05-17T04:28:01.198Z,5.43
2023-05-17T04:30:33.589Z,5.50
2023-05-17T04:33:04.028Z,5.13
2023-05-17T04:35:33.928Z,6.13
2023-05-17T04:38:03.693Z,4.70
2023-05-17T04:40:33.833Z,5.20
2023-05-17T04:43:04.052Z,5.33
2023-05-17T04:45:37.945Z,5.77
2023-05-17T04:48:08.587Z,5.30
2023-05-17T04:50:38.600Z,4.77
2023-05-17T04:53:09.119Z,4.70
2023-05-17T04:55:40.088Z,5.37
2023-05-17T04:58:10.129Z,5.10
2023-05-17T05:00:43.844Z,4.93
2023-05-17T05:03:14.446Z,5.37
2023-05-17T05:05:44.662Z,5.70
2023-05-17T05:08:15.266Z,5.43
2023-05-17T05:10:46.896Z,5.07
2023-05-17T05:13:19.282Z,4.60
2023-05-17T05:15:51.849Z,4.53
2023-05-17T05:18:21.831Z,4.47
2023-05-17T05:20:52.196Z,4.63
2023-05-17T05:23:22.261Z,4.33
2023-05-17T05:25:52.480Z,5.27
2023-05-17T05:28:22.357Z,3.57
2023-05-17T05:31:00.872Z,3.93
2023-05-17T05:33:37.825Z,4.10
2023-05-17T05:36:08.863Z,5.33
2023-05-17T05:38:39.004Z,4.60
2023-05-17T05:41:09.562Z,3.87
2023-05-17T05:43:40.349Z,3.80
2023-05-17T05:46:13.358Z,3.47
2023-05-17T05:48:45.103Z,3.97
2023-05-17T05:51:15.524Z,4.37
2023-05-17T05:53:46.992Z,4.07
2023-05-17T05:56:16.997Z,3.63
2023-05-17T05:58:46.940Z,3.90
2023-05-17T06:01:19.476Z,4.47
2023-05-17T06:03:49.292Z,4.73
2023-05-17T06:06:19.694Z,3.47
2023-05-17T06:08:49.737Z,3.67
2023-05-17T06:11:21.221Z,3.93
2023-05-17T06:13:50.987Z,4.10
2023-05-17T06:16:23.452Z,3.13
2023-05-17T06:18:53.596Z,3.17
2023-05-17T06:21:23.573Z,3.97
2023-05-17T06:23:53.959Z,3.23
2023-05-17T06:26:23.940Z,4.10
2023-05-17T06:28:53.847Z,3.10
2023-05-17T06:31:26.868Z,3.03
2023-05-17T06:33:56.743Z,3.53
2023-05-17T06:36:27.217Z,2.40
2023-05-17T06:38:57.658Z,3.00
2023-05-17T06:41:27.493Z,3.63
2023-05-17T06:43:57.298Z,2.57
2023-05-17T06:46:29.731Z,2.80
2023-05-17T06:48:59.689Z,2.83
2023-05-17T06:51:29.583Z,2.40
2023-05-17T06:53:59.372Z,2.50
2023-05-17T06:56:29.716Z,2.37
2023-05-17T06:58:59.861Z,2.67
2023-05-17T07:01:32.425Z,3.17
2023-05-17T07:04:02.394Z,2.97
2023-05-17T07:06:32.268Z,2.73
2023-05-17T07:09:02.038Z,2.20
2023-05-17T07:11:31.902Z,2.20
2023-05-17T07:14:01.716Z,2.40
2023-05-17T07:16:34.152Z,2.97
2023-05-17T07:19:04.137Z,2.47
2023-05-17T07:21:34.594Z,2.90
2023-05-17T07:24:04.473Z,2.17
2023-05-17T07:26:34.319Z,1.97
2023-05-17T07:29:04.479Z,4.10
2023-05-17T07:31:37.002Z,2.90
2023-05-17T07:34:08.127Z,2.97
2023-05-17T07:36:38.179Z,2.80
2023-05-17T07:39:08.950Z,2.00
2023-05-17T07:41:39.905Z,3.23
2023-05-17T07:44:09.857Z,2.63
2023-05-17T07:46:42.390Z,2.90
2023-05-17T07:49:12.681Z,2.90
2023-05-17T07:51:43.035Z,3.33
2023-05-17T07:54:12.960Z,4.20
2023-05-17T07:56:42.799Z,3.57
2023-05-17T07:59:12.644Z,2.70
2023-05-17T08:01:45.129Z,3.13
2023-05-17T08:04:14.951Z,2.67
2023-05-17T08:06:45.987Z,2.70
2023-05-17T08:09:16.016Z,2.73
2023-05-17T08:11:46.833Z,2.80
2023-05-17T08:14:17.407Z,3.27
2023-05-17T08:16:51.891Z,3.00
2023-05-17T08:19:22.179Z,3.30
2023-05-17T08:21:52.106Z,2.80
2023-05-17T08:24:22.003Z,2.47
2023-05-17T08:26:51.829Z,2.10
2023-05-17T08:29:21.670Z,3.17
2023-05-17T08:31:54.332Z,2.97
2023-05-17T08:34:26.593Z,2.57
2023-05-17T08:36:56.678Z,2.73
2023-05-17T08:39:26.566Z,2.60
2023-05-17T08:41:59.628Z,4.57
2023-05-17T08:44:31.061Z,3.40
2023-05-17T08:47:04.316Z,2.10
2023-05-17T08:49:34.945Z,2.27
2023-05-17T08:52:10.025Z,2.30
2023-05-17T08:54:39.934Z,2.10
2023-05-17T08:57:10.922Z,2.73
2023-05-17T08:59:42.216Z,2.80
2023-05-17T09:02:17.146Z,2.80
2023-05-17T09:04:47.099Z,3.77
2023-05-17T09:07:17.621Z,2.50
2023-05-17T09:09:47.444Z,2.33
2023-05-17T09:12:17.273Z,2.47
2023-05-17T09:14:47.152Z,3.63
2023-05-17T09:17:23.427Z,4.90
2023-05-17T09:19:53.464Z,2.77
2023-05-17T09:22:23.526Z,2.63
2023-05-17T09:24:53.591Z,2.70
2023-05-17T09:27:23.385Z,3.40
2023-05-17T09:29:53.223Z,2.60
2023-05-17T09:32:25.912Z,3.40
2023-05-17T09:34:56.372Z,2.97
2023-05-17T09:37:26.378Z,3.60
2023-05-17T09:39:58.079Z,3.23
2023-05-17T09:42:29.248Z,3.63
2023-05-17T09:45:01.923Z,3.03
2023-05-17T09:47:35.765Z,2.77
2023-05-17T09:50:06.575Z,3.10
2023-05-17T09:52:40.253Z,3.37
2023-05-17T09:55:13.266Z,3.27
2023-05-17T09:57:43.872Z,3.20
2023-05-17T10:00:15.154Z,2.40
2023-05-17T10:02:51.142Z,3.03
2023-05-17T10:05:21.870Z,2.40
2023-05-17T10:07:53.467Z,2.73
2023-05-17T10:10:23.658Z,3.77
2023-05-17T10:12:54.274Z,3.07
2023-05-17T10:15:24.513Z,3.17
2023-05-17T10:17:57.481Z,2.90
2023-05-17T10:20:27.531Z,3.27
2023-05-17T10:22:58.942Z,2.90
2023-05-17T10:25:29.092Z,2.77
2023-05-17T10:28:00.064Z,2.80
2023-05-17T10:30:31.885Z,2.37
2023-05-17T10:33:05.786Z,2.63
2023-05-17T10:35:37.328Z,3.70
2023-05-17T10:38:08.395Z,3.13
2023-05-17T10:40:39.778Z,2.23
2023-05-17T10:43:12.382Z,2.80
2023-05-17T10:45:44.201Z,3.40
2023-05-17T10:48:19.022Z,2.50
2023-05-17T10:51:00.652Z,3.10
2023-05-17T10:53:30.952Z,2.63
2023-05-17T10:56:01.015Z,2.63
2023-05-17T10:58:31.848Z,2.90
2023-05-17T11:01:01.840Z,2.53
2023-05-17T11:03:34.817Z,2.43
2023-05-17T11:06:25.280Z,2.83
2023-05-17T11:09:16.756Z,3.03
2023-05-17T11:12:08.408Z,2.37
2023-05-17T11:14:51.995Z,2.00
2023-05-17T11:17:23.403Z,2.17
2023-05-17T11:20:06.216Z,1.93
2023-05-17T11:22:42.472Z,2.33
2023-05-17T11:25:14.929Z,2.17
2023-05-17T11:27:49.222Z,2.40
2023-05-17T11:30:21.726Z,3.03
2023-05-17T11:32:55.468Z,3.40
2023-05-17T11:35:31.567Z,3.03
2023-05-17T11:38:18.279Z,2.60
2023-05-17T11:40:49.492Z,2.97
2023-05-17T11:43:22.048Z,2.50
2023-05-17T11:45:53.854Z,2.70
2023-05-17T11:48:26.043Z,2.73
2023-05-17T11:51:01.912Z,3.77
2023-05-17T11:53:34.487Z,3.00
2023-05-17T11:56:06.867Z,3.67
2023-05-17T11:58:38.036Z,3.07
2023-05-17T12:01:09.235Z,2.57
2023-05-17T12:03:39.087Z,3.37
2023-05-17T12:06:13.314Z,3.53
2023-05-17T12:08:47.203Z,2.57
2023-05-17T12:11:19.738Z,3.10
2023-05-17T12:13:52.171Z,3.60
2023-05-17T12:16:25.139Z,3.13
2023-05-17T12:18:55.483Z,2.70
2023-05-17T12:21:28.003Z,2.77
2023-05-17T12:23:57.849Z,2.87
2023-05-17T12:26:27.727Z,3.30
2023-05-17T12:28:59.134Z,2.67
2023-05-17T12:31:32.287Z,3.43
2023-05-17T12:34:03.088Z,3.17
2023-05-17T12:36:37.491Z,2.60
2023-05-17T12:39:10.054Z,2.57
2023-05-17T12:41:41.174Z,2.20
2023-05-17T12:44:15.524Z,2.33
2023-05-17T12:46:50.662Z,2.70
2023-05-17T12:49:21.192Z,2.13
2023-05-17T12:51:53.784Z,2.70
2023-05-17T12:54:31.340Z,2.93
2023-05-17T12:57:01.206Z,2.57
2023-05-17T12:59:36.571Z,2.63
2023-05-17T13:02:06.883Z,2.80
2023-05-17T13:04:39.097Z,2.57
2023-05-17T13:07:11.689Z,2.20
2023-05-17T13:09:49.734Z,2.70
2023-05-17T13:12:23.349Z,2.30
2023-05-17T13:14:55.083Z,2.27
2023-05-17T13:17:28.585Z,2.80
2023-05-17T13:19:58.758Z,2.00
2023-05-17T13:22:31.495Z,2.37
2023-05-17T13:25:01.354Z,1.93
2023-05-17T13:27:31.480Z,1.97
2023-05-17T13:30:01.390Z,2.50
2023-05-17T13:32:31.922Z,2.10
2023-05-17T13:35:02.274Z,2.13
2023-05-17T13:37:34.741Z,2.17
2023-05-17T13:40:04.666Z,1.77
2023-05-17T13:42:34.913Z,2.80
2023-05-17T13:45:04.799Z,1.60
2023-05-17T13:47:37.917Z,1.93
2023-05-17T13:50:08.736Z,2.20
2023-05-17T13:52:41.306Z,2.63
2023-05-17T13:55:11.795Z,2.17
2023-05-17T13:57:42.483Z,2.70
2023-05-17T14:00:13.825Z,3.00
2023-05-17T14:02:49.134Z,2.30
2023-05-17T14:05:19.322Z,1.50
2023-05-17T14:07:51.735Z,1.93
2023-05-17T14:10:21.631Z,2.37
2023-05-17T14:12:51.547Z,2.07
2023-05-17T14:15:22.056Z,2.07
2023-05-17T14:17:52.734Z,2.53
2023-05-17T14:20:22.598Z,1.90
2023-05-17T14:22:55.074Z,1.97
2023-05-17T14:25:25.428Z,2.17
2023-05-17T14:27:55.271Z,1.90
2023-05-17T14:30:25.310Z,2.17
2023-05-17T14:32:55.176Z,1.60
2023-05-17T14:35:25.115Z,1.80
2023-05-17T14:37:57.502Z,1.60
2023-05-17T14:40:27.543Z,2.33
2023-05-17T14:42:58.455Z,1.98
2023-05-17T14:45:28.268Z,2.30
2023-05-17T14:47:58.124Z,1.70
2023-05-17T14:50:28.116Z,1.87
2023-05-17T14:53:00.676Z,2.50
2023-05-17T14:55:30.892Z,1.90
2023-05-17T14:58:02.062Z,2.00
2023-05-17T15:00:31.891Z,1.93
2023-05-17T15:03:01.874Z,1.93
2023-05-17T15:05:32.612Z,1.77
2023-05-17T15:08:05.404Z,2.00
2023-05-17T15:10:35.661Z,1.73
2023-05-17T15:13:05.489Z,2.00
2023-05-17T15:15:36.872Z,2.17
2023-05-17T15:18:06.914Z,2.17
2023-05-17T15:20:39.681Z,3.00
2023-05-17T15:23:12.302Z,2.30
2023-05-17T15:25:42.183Z,1.97
2023-05-17T15:28:12.360Z,2.30
2023-05-17T15:30:42.319Z,2.43
2023-05-17T15:33:12.510Z,2.47
2023-05-17T15:35:43.359Z,2.43
2023-05-17T15:38:15.837Z,2.87
2023-05-17T15:40:45.646Z,3.23
2023-05-17T15:43:15.459Z,2.43
2023-05-17T15:45:45.238Z,2.03
2023-05-17T15:48:15.298Z,2.30
2023-05-17T15:50:45.112Z,2.27
2023-05-17T15:53:17.615Z,1.90
2023-05-17T15:55:50.896Z,2.90
2023-05-17T15:58:20.897Z,3.37
2023-05-17T16:00:50.966Z,2.97
2023-05-17T16:03:20.842Z,2.63
2023-05-17T16:05:50.903Z,2.90
2023-05-17T16:08:23.575Z,2.10
2023-05-17T16:10:53.383Z,2.38
2023-05-17T16:13:23.161Z,2.77
2023-05-17T16:15:52.961Z,2.23
2023-05-17T16:18:22.817Z,3.00
2023-05-17T16:21:00.261Z,2.80
2023-05-17T16:23:32.921Z,2.57
2023-05-17T16:26:03.032Z,2.47
2023-05-17T16:28:34.777Z,2.03
2023-05-17T16:31:06.293Z,2.27
2023-05-17T16:33:36.151Z,2.80
2023-05-17T16:36:06.797Z,2.53
2023-05-17T16:38:39.248Z,2.63
2023-05-17T16:41:09.059Z,2.20
2023-05-17T16:43:39.015Z,2.70
2023-05-17T16:46:08.838Z,2.27
2023-05-17T16:48:38.680Z,2.93
2023-05-17T16:51:08.719Z,3.90
2023-05-17T16:53:41.165Z,1.93
2023-05-17T16:56:10.932Z,2.53
2023-05-17T16:58:40.683Z,3.47
2023-05-17T17:01:10.522Z,3.20
2023-05-17T17:03:40.430Z,3.10
2023-05-17T17:06:10.390Z,2.53
2023-05-17T17:08:42.800Z,2.70
2023-05-17T17:11:12.590Z,2.67
2023-05-17T17:13:42.452Z,3.07
2023-05-17T17:16:12.287Z,2.20
2023-05-17T17:18:42.147Z,2.83
2023-05-17T17:21:11.983Z,2.80
2023-05-17T17:23:44.603Z,2.80
2023-05-17T17:26:15.569Z,2.80
2023-05-17T17:28:45.588Z,2.60
2023-05-17T17:31:15.343Z,2.87
2023-05-17T17:33:45.184Z,2.83
2023-05-17T17:36:15.016Z,3.30
2023-05-17T17:38:47.408Z,2.40
2023-05-17T17:41:17.216Z,3.20
2023-05-17T17:43:47.647Z,2.43
2023-05-17T17:46:17.415Z,3.40
2023-05-17T17:48:47.191Z,2.53
2023-05-17T17:51:16.981Z,3.70
2023-05-17T17:53:49.349Z,2.90
2023-05-17T17:56:19.132Z,3.20
2023-05-17T17:58:49.212Z,2.93
2023-05-17T18:01:19.198Z,2.70
2023-05-17T18:03:49.008Z,2.90
2023-05-17T18:06:19.682Z,2.50
2023-05-17T18:08:52.052Z,2.63
2023-05-17T18:11:21.869Z,3.57
2023-05-17T18:13:51.839Z,2.67
2023-05-17T18:16:21.673Z,2.90
2023-05-17T18:18:51.597Z,3.10
2023-05-17T18:21:21.785Z,3.87
2023-05-17T18:23:54.228Z,3.53
2023-05-17T18:26:24.283Z,3.17
2023-05-17T18:28:54.162Z,2.57
2023-05-17T18:31:23.975Z,3.47
2023-05-17T18:33:56.308Z,2.60
2023-05-17T18:36:27.801Z,2.70
2023-05-17T18:39:01.064Z,4.23
2023-05-17T18:41:31.433Z,4.17
2023-05-17T18:44:04.300Z,2.90
2023-05-17T18:46:34.368Z,3.50
2023-05-17T18:49:04.409Z,4.17
2023-05-17T18:51:34.344Z,3.10
2023-05-17T18:54:06.877Z,4.00
2023-05-17T18:56:36.708Z,3.93
2023-05-17T18:59:06.585Z,2.60
2023-05-17T19:01:36.958Z,3.00
2023-05-17T19:04:06.885Z,2.57
2023-05-17T19:06:36.711Z,3.07
2023-05-17T19:09:09.190Z,2.97
2023-05-17T19:11:39.074Z,3.20
2023-05-17T19:14:08.885Z,2.70
2023-05-17T19:16:39.288Z,2.77
2023-05-17T19:19:09.426Z,3.50
2023-05-17T19:21:39.273Z,2.30
2023-05-17T19:24:11.805Z,3.07
2023-05-17T19:26:41.755Z,2.63
2023-05-17T19:29:11.517Z,3.00
2023-05-17T19:31:41.332Z,2.80
2023-05-17T19:34:11.210Z,2.80
2023-05-17T19:36:40.994Z,2.53
2023-05-17T19:39:13.426Z,2.77
2023-05-17T19:41:43.222Z,3.07
2023-05-17T19:44:13.075Z,3.00
2023-05-17T19:46:43.036Z,2.37
2023-05-17T19:49:12.826Z,3.20
2023-05-17T19:51:42.585Z,2.70
2023-05-17T19:54:15.090Z,2.97
2023-05-17T19:56:45.011Z,3.83
2023-05-17T19:59:14.818Z,3.80
2023-05-17T20:01:44.620Z,2.50
2023-05-17T20:04:14.728Z,2.97
2023-05-17T20:06:44.566Z,3.43
2023-05-17T20:09:17.017Z,3.30
2023-05-17T20:11:46.916Z,3.87
2023-05-17T20:14:16.700Z,3.20
2023-05-17T20:16:46.586Z,3.70
2023-05-17T20:19:16.797Z,3.60
2023-05-17T20:21:46.754Z,2.73
2023-05-17T20:24:19.619Z,3.27
2023-05-17T20:26:49.585Z,3.37
2023-05-17T20:29:19.531Z,3.50
2023-05-17T20:31:49.416Z,3.23
2023-05-17T20:34:19.377Z,3.30
2023-05-17T20:36:49.278Z,3.43
2023-05-17T20:39:22.320Z,3.50
2023-05-17T20:41:52.554Z,3.00
2023-05-17T20:44:24.225Z,3.77
2023-05-17T20:46:54.373Z,2.87
2023-05-17T20:49:24.236Z,3.60
2023-05-17T20:51:54.025Z,2.77
2023-05-17T20:54:27.807Z,4.23
2023-05-17T20:56:57.589Z,3.60
2023-05-17T20:59:27.579Z,3.10
2023-05-17T21:01:57.652Z,3.90
2023-05-17T21:04:27.569Z,3.17
2023-05-17T21:06:58.243Z,3.53
2023-05-17T21:09:30.662Z,3.77
2023-05-17T21:12:00.453Z,4.57
2023-05-17T21:14:30.270Z,3.90
2023-05-17T21:17:00.107Z,3.97
2023-05-17T21:19:29.951Z,4.37
2023-05-17T21:21:59.767Z,6.17
2023-05-17T21:24:32.186Z,5.97
2023-05-17T21:27:02.275Z,5.60
2023-05-17T21:29:32.147Z,5.40
2023-05-17T21:32:01.941Z,4.30
2023-05-17T21:34:31.730Z,5.13
2023-05-17T21:37:01.641Z,4.33
2023-05-17T21:39:33.997Z,5.07
2023-05-17T21:42:03.832Z,5.40
2023-05-17T21:44:33.626Z,4.90
2023-05-17T21:47:03.680Z,5.20
2023-05-17T21:49:33.561Z,6.27
2023-05-17T21:52:03.410Z,9.00
2023-05-17T21:54:35.926Z,6.63
2023-05-17T21:57:05.816Z,3.80
2023-05-17T21:59:36.446Z,4.23
2023-05-17T22:02:07.005Z,3.90
2023-05-17T22:04:38.408Z,3.57
2023-05-17T22:07:08.803Z,4.00
2023-05-17T22:09:41.221Z,4.03
2023-05-17T22:12:12.384Z,4.03
2023-05-17T22:14:44.666Z,4.20
2023-05-17T22:17:15.255Z,4.30
2023-05-17T22:19:45.587Z,3.50
2023-05-17T22:22:15.534Z,4.27
2023-05-17T22:24:47.940Z,3.73
2023-05-17T22:27:17.751Z,4.13
2023-05-17T22:29:47.531Z,4.83
2023-05-17T22:32:17.728Z,3.93
2023-05-17T22:34:47.578Z,4.60
2023-05-17T22:37:17.767Z,4.30
2023-05-17T22:39:50.256Z,4.27
2023-05-17T22:42:20.199Z,4.67
2023-05-17T22:44:50.024Z,4.63
2023-05-17T22:47:23.128Z,4.73
2023-05-17T22:49:53.590Z,3.80
2023-05-17T22:52:23.348Z,4.23
2023-05-17T22:54:55.811Z,4.30
2023-05-17T22:57:25.856Z,4.07
2023-05-17T22:59:55.628Z,4.37
2023-05-17T23:02:25.432Z,4.43
2023-05-17T23:04:55.884Z,4.50
2023-05-17T23:07:27.935Z,4.27
2023-05-17T23:10:00.279Z,5.03
2023-05-17T23:12:31.672Z,4.67
2023-05-17T23:15:01.525Z,4.67
2023-05-17T23:17:34.155Z,3.43
2023-05-17T23:20:07.100Z,4.03
2023-05-17T23:22:36.953Z,4.10
2023-05-17T23:25:09.893Z,4.33
2023-05-17T23:27:39.664Z,4.07
2023-05-17T23:30:10.930Z,3.90
2023-05-17T23:32:42.555Z,4.60
2023-05-17T23:35:12.583Z,3.90
2023-05-17T23:37:42.384Z,3.73
2023-05-17T23:40:16.842Z,3.60
2023-05-17T23:42:46.742Z,3.23
2023-05-17T23:45:16.564Z,3.80
2023-05-17T23:47:47.904Z,4.03
2023-05-17T23:50:18.229Z,3.40
2023-05-17T23:52:48.041Z,4.47
2023-05-17T23:55:22.363Z,4.00
2023-05-17T23:57:52.468Z,4.10
